Terminal Aerodrome Forecast
Issued by NWS

Home | Current Version | Previous Version | Text Only | Print | Product List | Glossary On
Versions: 1 2 3 4 5 6 7 8 9 10 11 12 13 14 15 16 17 18 19 20 21 22
361
FTUS42 KGSP 242134 AAC
TAFGMU
TAF AMD
KGMU 242134Z 2422/2518 36003KT P6SM -RA SCT060 BKN100
     FM242330 35003KT P6SM VCSH SCT060 BKN100
     FM250200 26004KT P6SM SCT050 BKN150
     FM250500 33004KT P6SM FEW060 BKN200
     FM251000 02005KT P6SM SCT250=

USA.gov is the U.S. government's official web portal to all federal, state and local government web resources and services.